sensor_id;sensor_type;location;lat;lon;timestamp;P1;durP1;ratioP1;P2;durP2;ratioP2
60492;SDS011;46341;51.290;-2.474;2022-11-13T00:01:12;23.25;;;13.93;;
60492;SDS011;46341;51.290;-2.474;2022-11-13T00:03:39;18.83;;;13.25;;
60492;SDS011;46341;51.290;-2.474;2022-11-13T00:06:06;20.08;;;14.43;;
60492;SDS011;46341;51.290;-2.474;2022-11-13T00:08:32;21.23;;;14.80;;
60492;SDS011;46341;51.290;-2.474;2022-11-13T00:10:59;21.08;;;15.20;;
60492;SDS011;46341;51.290;-2.474;2022-11-13T00:13:27;18.25;;;14.43;;
60492;SDS011;46341;51.290;-2.474;2022-11-13T00:15:56;20.90;;;15.23;;
60492;SDS011;46341;51.290;-2.474;2022-11-13T00:18:23;21.67;;;14.15;;
60492;SDS011;46341;51.290;-2.474;2022-11-13T00:20:49;20.48;;;15.13;;
60492;SDS011;46341;51.290;-2.474;2022-11-13T00:23:15;18.83;;;13.82;;
60492;SDS011;46341;51.290;-2.474;2022-11-13T00:25:42;21.02;;;14.77;;
60492;SDS011;46341;51.290;-2.474;2022-11-13T00:28:08;18.90;;;13.98;;
60492;SDS011;46341;51.290;-2.474;2022-11-13T00:30:34;17.83;;;14.65;;
60492;SDS011;46341;51.290;-2.474;2022-11-13T00:33:01;19.80;;;15.35;;
60492;SDS011;46341;51.290;-2.474;2022-11-13T00:35:27;20.15;;;14.80;;
60492;SDS011;46341;51.290;-2.474;2022-11-13T00:37:53;23.75;;;15.30;;
60492;SDS011;46341;51.290;-2.474;2022-11-13T00:40:20;24.52;;;14.85;;
60492;SDS011;46341;51.290;-2.474;2022-11-13T00:42:46;17.30;;;14.38;;
60492;SDS011;46341;51.290;-2.474;2022-11-13T00:45:12;19.88;;;14.80;;
60492;SDS011;46341;51.290;-2.474;2022-11-13T00:47:39;20.27;;;14.55;;
60492;SDS011;46341;51.290;-2.474;2022-11-13T00:50:05;22.85;;;16.02;;
60492;SDS011;46341;51.290;-2.474;2022-11-13T00:52:32;19.77;;;16.02;;
60492;SDS011;46341;51.290;-2.474;2022-11-13T00:54:58;22.60;;;17.08;;
60492;SDS011;46341;51.290;-2.474;2022-11-13T00:57:25;21.27;;;15.98;;
60492;SDS011;46341;51.290;-2.474;2022-11-13T00:59:51;18.65;;;16.30;;
60492;SDS011;46341;51.290;-2.474;2022-11-13T01:02:17;22.42;;;16.50;;
60492;SDS011;46341;51.290;-2.474;2022-11-13T01:04:44;23.60;;;17.35;;
60492;SDS011;46341;51.290;-2.474;2022-11-13T01:07:10;23.67;;;16.98;;
60492;SDS011;46341;51.290;-2.474;2022-11-13T01:09:36;23.30;;;17.05;;
60492;SDS011;46341;51.290;-2.474;2022-11-13T01:12:03;24.23;;;17.35;;
60492;SDS011;46341;51.290;-2.474;2022-11-13T01:14:29;25.13;;;17.63;;
60492;SDS011;46341;51.290;-2.474;2022-11-13T01:16:56;23.73;;;17.92;;
60492;SDS011;46341;51.290;-2.474;2022-11-13T01:19:22;28.10;;;18.85;;
60492;SDS011;46341;51.290;-2.474;2022-11-13T01:21:48;24.73;;;17.83;;
60492;SDS011;46341;51.290;-2.474;2022-11-13T01:24:15;21.73;;;18.13;;
60492;SDS011;46341;51.290;-2.474;2022-11-13T01:26:41;22.60;;;18.10;;
60492;SDS011;46341;51.290;-2.474;2022-11-13T01:29:08;23.90;;;17.65;;
60492;SDS011;46341;51.290;-2.474;2022-11-13T01:31:35;22.88;;;18.27;;
60492;SDS011;46341;51.290;-2.474;2022-11-13T01:34:01;26.67;;;18.77;;
60492;SDS011;46341;51.290;-2.474;2022-11-13T01:36:28;28.92;;;19.10;;
60492;SDS011;46341;51.290;-2.474;2022-11-13T01:38:54;27.80;;;20.00;;
60492;SDS011;46341;51.290;-2.474;2022-11-13T01:41:25;26.50;;;19.85;;
60492;SDS011;46341;51.290;-2.474;2022-11-13T01:43:53;26.05;;;19.17;;
60492;SDS011;46341;51.290;-2.474;2022-11-13T01:48:47;27.05;;;19.55;;
60492;SDS011;46341;51.290;-2.474;2022-11-13T01:51:20;26.20;;;19.17;;
60492;SDS011;46341;51.290;-2.474;2022-11-13T01:53:47;30.02;;;19.17;;
60492;SDS011;46341;51.290;-2.474;2022-11-13T01:56:14;26.25;;;19.25;;
60492;SDS011;46341;51.290;-2.474;2022-11-13T01:58:41;23.55;;;18.77;;
60492;SDS011;46341;51.290;-2.474;2022-11-13T02:01:09;26.45;;;18.60;;
60492;SDS011;46341;51.290;-2.474;2022-11-13T02:03:35;31.63;;;19.52;;
60492;SDS011;46341;51.290;-2.474;2022-11-13T02:06:01;27.73;;;19.27;;
60492;SDS011;46341;51.290;-2.474;2022-11-13T02:08:28;28.52;;;20.23;;
60492;SDS011;46341;51.290;-2.474;2022-11-13T02:10:55;28.00;;;19.02;;
60492;SDS011;46341;51.290;-2.474;2022-11-13T02:13:21;24.08;;;19.17;;
60492;SDS011;46341;51.290;-2.474;2022-11-13T02:15:48;26.65;;;19.73;;
60492;SDS011;46341;51.290;-2.474;2022-11-13T02:18:15;29.67;;;19.55;;
60492;SDS011;46341;51.290;-2.474;2022-11-13T02:23:34;23.42;;;17.65;;
60492;SDS011;46341;51.290;-2.474;2022-11-13T02:26:03;27.73;;;18.75;;
60492;SDS011;46341;51.290;-2.474;2022-11-13T02:28:31;23.27;;;17.33;;
60492;SDS011;46341;51.290;-2.474;2022-11-13T02:31:04;24.55;;;18.55;;
60492;SDS011;46341;51.290;-2.474;2022-11-13T02:33:31;28.83;;;18.33;;
60492;SDS011;46341;51.290;-2.474;2022-11-13T02:35:58;25.70;;;18.73;;
60492;SDS011;46341;51.290;-2.474;2022-11-13T02:38:24;28.33;;;18.50;;
60492;SDS011;46341;51.290;-2.474;2022-11-13T02:40:51;22.37;;;18.57;;
60492;SDS011;46341;51.290;-2.474;2022-11-13T02:43:18;25.75;;;18.25;;
60492;SDS011;46341;51.290;-2.474;2022-11-13T02:45:44;25.98;;;18.50;;
60492;SDS011;46341;51.290;-2.474;2022-11-13T02:48:10;25.25;;;18.30;;
60492;SDS011;46341;51.290;-2.474;2022-11-13T02:50:37;24.77;;;17.88;;
60492;SDS011;46341;51.290;-2.474;2022-11-13T02:53:03;25.67;;;19.17;;
60492;SDS011;46341;51.290;-2.474;2022-11-13T02:55:30;25.00;;;19.40;;
60492;SDS011;46341;51.290;-2.474;2022-11-13T02:57:56;25.92;;;19.10;;
60492;SDS011;46341;51.290;-2.474;2022-11-13T03:00:23;25.63;;;18.67;;
60492;SDS011;46341;51.290;-2.474;2022-11-13T03:02:49;27.40;;;19.83;;
60492;SDS011;46341;51.290;-2.474;2022-11-13T03:05:16;26.90;;;18.80;;
60492;SDS011;46341;51.290;-2.474;2022-11-13T03:07:42;25.40;;;19.25;;
60492;SDS011;46341;51.290;-2.474;2022-11-13T03:10:09;27.58;;;19.92;;
60492;SDS011;46341;51.290;-2.474;2022-11-13T03:12:35;24.95;;;19.08;;
60492;SDS011;46341;51.290;-2.474;2022-11-13T03:15:02;25.20;;;19.15;;
60492;SDS011;46341;51.290;-2.474;2022-11-13T03:17:31;33.17;;;21.73;;
60492;SDS011;46341;51.290;-2.474;2022-11-13T03:19:58;29.10;;;19.92;;
60492;SDS011;46341;51.290;-2.474;2022-11-13T03:22:25;33.25;;;20.83;;
60492;SDS011;46341;51.290;-2.474;2022-11-13T03:24:51;27.77;;;20.47;;
60492;SDS011;46341;51.290;-2.474;2022-11-13T03:27:18;32.78;;;22.05;;
60492;SDS011;46341;51.290;-2.474;2022-11-13T03:29:44;31.02;;;20.23;;
60492;SDS011;46341;51.290;-2.474;2022-11-13T03:32:10;29.60;;;21.23;;
60492;SDS011;46341;51.290;-2.474;2022-11-13T03:34:37;32.60;;;21.35;;
60492;SDS011;46341;51.290;-2.474;2022-11-13T03:37:04;30.83;;;21.58;;
60492;SDS011;46341;51.290;-2.474;2022-11-13T03:39:30;29.90;;;20.52;;
60492;SDS011;46341;51.290;-2.474;2022-11-13T03:41:57;29.95;;;20.80;;
60492;SDS011;46341;51.290;-2.474;2022-11-13T03:44:23;30.85;;;21.70;;
60492;SDS011;46341;51.290;-2.474;2022-11-13T03:46:49;30.45;;;21.77;;
60492;SDS011;46341;51.290;-2.474;2022-11-13T03:49:16;29.65;;;21.73;;
60492;SDS011;46341;51.290;-2.474;2022-11-13T03:51:42;28.70;;;21.08;;
60492;SDS011;46341;51.290;-2.474;2022-11-13T03:54:08;30.15;;;21.63;;
60492;SDS011;46341;51.290;-2.474;2022-11-13T03:56:35;29.88;;;21.00;;
60492;SDS011;46341;51.290;-2.474;2022-11-13T03:59:01;27.23;;;19.88;;
60492;SDS011;46341;51.290;-2.474;2022-11-13T04:01:27;28.25;;;20.77;;
60492;SDS011;46341;51.290;-2.474;2022-11-13T04:03:54;29.83;;;21.15;;
60492;SDS011;46341;51.290;-2.474;2022-11-13T04:06:20;28.65;;;20.08;;
60492;SDS011;46341;51.290;-2.474;2022-11-13T04:08:47;27.48;;;19.67;;
60492;SDS011;46341;51.290;-2.474;2022-11-13T04:11:13;26.10;;;19.48;;
60492;SDS011;46341;51.290;-2.474;2022-11-13T04:13:39;29.90;;;21.08;;
60492;SDS011;46341;51.290;-2.474;2022-11-13T04:16:06;25.42;;;19.02;;
60492;SDS011;46341;51.290;-2.474;2022-11-13T04:18:32;25.73;;;20.02;;
60492;SDS011;46341;51.290;-2.474;2022-11-13T04:20:59;27.58;;;18.42;;
60492;SDS011;46341;51.290;-2.474;2022-11-13T04:23:25;28.30;;;19.05;;
60492;SDS011;46341;51.290;-2.474;2022-11-13T04:25:52;27.15;;;20.45;;
60492;SDS011;46341;51.290;-2.474;2022-11-13T04:28:18;25.25;;;19.30;;
60492;SDS011;46341;51.290;-2.474;2022-11-13T04:30:45;25.98;;;18.98;;
60492;SDS011;46341;51.290;-2.474;2022-11-13T04:33:11;21.38;;;17.48;;
60492;SDS011;46341;51.290;-2.474;2022-11-13T04:35:37;22.63;;;18.40;;
60492;SDS011;46341;51.290;-2.474;2022-11-13T04:38:04;24.02;;;17.73;;
60492;SDS011;46341;51.290;-2.474;2022-11-13T04:40:30;22.33;;;17.23;;
60492;SDS011;46341;51.290;-2.474;2022-11-13T04:42:56;22.00;;;17.77;;
60492;SDS011;46341;51.290;-2.474;2022-11-13T04:45:23;20.55;;;17.27;;
60492;SDS011;46341;51.290;-2.474;2022-11-13T04:47:52;21.17;;;17.10;;
60492;SDS011;46341;51.290;-2.474;2022-11-13T04:50:19;23.40;;;17.70;;
60492;SDS011;46341;51.290;-2.474;2022-11-13T04:52:45;25.02;;;17.88;;
60492;SDS011;46341;51.290;-2.474;2022-11-13T04:55:12;21.90;;;15.70;;
60492;SDS011;46341;51.290;-2.474;2022-11-13T04:57:38;22.58;;;17.13;;
60492;SDS011;46341;51.290;-2.474;2022-11-13T05:00:05;20.88;;;16.92;;
60492;SDS011;46341;51.290;-2.474;2022-11-13T05:02:33;19.08;;;15.63;;
60492;SDS011;46341;51.290;-2.474;2022-11-13T05:04:59;20.23;;;16.50;;
60492;SDS011;46341;51.290;-2.474;2022-11-13T05:07:30;27.13;;;18.52;;
60492;SDS011;46341;51.290;-2.474;2022-11-13T05:09:56;25.00;;;17.95;;
60492;SDS011;46341;51.290;-2.474;2022-11-13T05:12:23;22.98;;;18.65;;
60492;SDS011;46341;51.290;-2.474;2022-11-13T05:14:49;21.85;;;17.17;;
60492;SDS011;46341;51.290;-2.474;2022-11-13T05:17:16;18.45;;;15.80;;
60492;SDS011;46341;51.290;-2.474;2022-11-13T05:19:42;22.52;;;16.95;;
60492;SDS011;46341;51.290;-2.474;2022-11-13T05:22:08;18.80;;;15.48;;
60492;SDS011;46341;51.290;-2.474;2022-11-13T05:24:35;22.48;;;15.45;;
60492;SDS011;46341;51.290;-2.474;2022-11-13T05:27:01;19.65;;;15.65;;
60492;SDS011;46341;51.290;-2.474;2022-11-13T05:29:27;20.85;;;16.80;;
60492;SDS011;46341;51.290;-2.474;2022-11-13T05:31:54;17.17;;;15.32;;
60492;SDS011;46341;51.290;-2.474;2022-11-13T05:34:20;18.42;;;14.55;;
60492;SDS011;46341;51.290;-2.474;2022-11-13T05:36:46;18.65;;;16.50;;
60492;SDS011;46341;51.290;-2.474;2022-11-13T05:39:13;20.08;;;16.50;;
60492;SDS011;46341;51.290;-2.474;2022-11-13T05:41:39;22.42;;;17.00;;
60492;SDS011;46341;51.290;-2.474;2022-11-13T05:44:06;22.67;;;16.73;;
60492;SDS011;46341;51.290;-2.474;2022-11-13T05:46:32;18.80;;;16.45;;
60492;SDS011;46341;51.290;-2.474;2022-11-13T05:48:59;22.77;;;18.27;;
60492;SDS011;46341;51.290;-2.474;2022-11-13T05:51:27;25.92;;;15.93;;
60492;SDS011;46341;51.290;-2.474;2022-11-13T05:53:54;25.85;;;19.15;;
60492;SDS011;46341;51.290;-2.474;2022-11-13T05:56:21;24.77;;;18.33;;
60492;SDS011;46341;51.290;-2.474;2022-11-13T05:58:48;25.70;;;19.05;;
60492;SDS011;46341;51.290;-2.474;2022-11-13T06:01:16;24.63;;;19.27;;
60492;SDS011;46341;51.290;-2.474;2022-11-13T06:03:43;28.23;;;19.80;;
60492;SDS011;46341;51.290;-2.474;2022-11-13T06:06:10;30.77;;;20.73;;
60492;SDS011;46341;51.290;-2.474;2022-11-13T06:08:37;27.63;;;19.42;;
60492;SDS011;46341;51.290;-2.474;2022-11-13T06:11:05;31.13;;;21.15;;
60492;SDS011;46341;51.290;-2.474;2022-11-13T06:16:04;47.28;;;22.85;;
60492;SDS011;46341;51.290;-2.474;2022-11-13T06:18:31;43.50;;;20.80;;
60492;SDS011;46341;51.290;-2.474;2022-11-13T06:21:02;59.92;;;22.98;;
60492;SDS011;46341;51.290;-2.474;2022-11-13T06:23:30;33.08;;;20.98;;
60492;SDS011;46341;51.290;-2.474;2022-11-13T06:26:05;31.05;;;20.73;;
60492;SDS011;46341;51.290;-2.474;2022-11-13T06:28:32;30.92;;;22.38;;
60492;SDS011;46341;51.290;-2.474;2022-11-13T06:31:06;27.40;;;22.02;;
60492;SDS011;46341;51.290;-2.474;2022-11-13T06:33:32;30.92;;;21.25;;
60492;SDS011;46341;51.290;-2.474;2022-11-13T06:36:03;27.15;;;21.20;;
60492;SDS011;46341;51.290;-2.474;2022-11-13T06:38:32;32.92;;;22.95;;
60492;SDS011;46341;51.290;-2.474;2022-11-13T06:40:59;33.15;;;23.02;;
60492;SDS011;46341;51.290;-2.474;2022-11-13T06:43:26;34.05;;;22.30;;
60492;SDS011;46341;51.290;-2.474;2022-11-13T06:45:53;33.33;;;22.10;;
60492;SDS011;46341;51.290;-2.474;2022-11-13T06:48:20;33.40;;;22.73;;
60492;SDS011;46341;51.290;-2.474;2022-11-13T06:50:47;32.50;;;23.88;;
60492;SDS011;46341;51.290;-2.474;2022-11-13T06:53:14;25.95;;;19.52;;
60492;SDS011;46341;51.290;-2.474;2022-11-13T06:55:41;43.65;;;21.20;;
60492;SDS011;46341;51.290;-2.474;2022-11-13T06:58:08;40.75;;;21.05;;
60492;SDS011;46341;51.290;-2.474;2022-11-13T07:00:34;50.47;;;22.20;;
60492;SDS011;46341;51.290;-2.474;2022-11-13T07:03:04;43.50;;;21.40;;
60492;SDS011;46341;51.290;-2.474;2022-11-13T07:05:31;40.92;;;21.75;;
60492;SDS011;46341;51.290;-2.474;2022-11-13T07:08:00;36.22;;;20.67;;
60492;SDS011;46341;51.290;-2.474;2022-11-13T07:10:27;30.42;;;21.25;;
60492;SDS011;46341;51.290;-2.474;2022-11-13T07:12:53;29.70;;;21.48;;
60492;SDS011;46341;51.290;-2.474;2022-11-13T07:15:20;38.42;;;21.42;;
60492;SDS011;46341;51.290;-2.474;2022-11-13T07:17:46;29.77;;;21.23;;
60492;SDS011;46341;51.290;-2.474;2022-11-13T07:20:12;25.70;;;20.25;;
60492;SDS011;46341;51.290;-2.474;2022-11-13T07:22:39;26.38;;;20.42;;
60492;SDS011;46341;51.290;-2.474;2022-11-13T07:25:06;27.63;;;20.23;;
60492;SDS011;46341;51.290;-2.474;2022-11-13T07:27:32;26.92;;;18.40;;
60492;SDS011;46341;51.290;-2.474;2022-11-13T07:29:59;23.60;;;18.88;;
60492;SDS011;46341;51.290;-2.474;2022-11-13T07:32:29;40.60;;;29.60;;
60492;SDS011;46341;51.290;-2.474;2022-11-13T07:34:55;42.08;;;30.83;;
60492;SDS011;46341;51.290;-2.474;2022-11-13T07:37:21;35.10;;;27.40;;
60492;SDS011;46341;51.290;-2.474;2022-11-13T07:39:48;33.83;;;25.42;;
60492;SDS011;46341;51.290;-2.474;2022-11-13T07:42:14;33.30;;;22.20;;
60492;SDS011;46341;51.290;-2.474;2022-11-13T07:44:40;30.83;;;21.92;;
60492;SDS011;46341;51.290;-2.474;2022-11-13T07:47:19;32.03;;;21.80;;
60492;SDS011;46341;51.290;-2.474;2022-11-13T07:49:46;30.13;;;21.73;;
60492;SDS011;46341;51.290;-2.474;2022-11-13T07:52:12;29.65;;;20.95;;
60492;SDS011;46341;51.290;-2.474;2022-11-13T07:54:39;32.33;;;21.45;;
60492;SDS011;46341;51.290;-2.474;2022-11-13T07:57:05;29.50;;;21.45;;
60492;SDS011;46341;51.290;-2.474;2022-11-13T07:59:31;30.83;;;22.67;;
60492;SDS011;46341;51.290;-2.474;2022-11-13T08:01:58;29.95;;;22.02;;
60492;SDS011;46341;51.290;-2.474;2022-11-13T08:04:24;31.65;;;22.05;;
60492;SDS011;46341;51.290;-2.474;2022-11-13T08:06:51;30.70;;;21.20;;
60492;SDS011;46341;51.290;-2.474;2022-11-13T08:09:17;33.20;;;22.27;;
60492;SDS011;46341;51.290;-2.474;2022-11-13T08:11:43;31.67;;;21.77;;
60492;SDS011;46341;51.290;-2.474;2022-11-13T08:14:10;31.63;;;21.55;;
60492;SDS011;46341;51.290;-2.474;2022-11-13T08:16:36;30.75;;;22.13;;
60492;SDS011;46341;51.290;-2.474;2022-11-13T08:19:03;34.55;;;22.40;;
60492;SDS011;46341;51.290;-2.474;2022-11-13T08:21:29;34.10;;;22.52;;
60492;SDS011;46341;51.290;-2.474;2022-11-13T08:23:55;33.25;;;21.90;;
60492;SDS011;46341;51.290;-2.474;2022-11-13T08:26:22;32.88;;;22.13;;
60492;SDS011;46341;51.290;-2.474;2022-11-13T08:28:48;34.42;;;22.17;;
60492;SDS011;46341;51.290;-2.474;2022-11-13T08:31:15;31.17;;;21.63;;
60492;SDS011;46341;51.290;-2.474;2022-11-13T08:33:41;31.10;;;22.38;;
60492;SDS011;46341;51.290;-2.474;2022-11-13T08:36:08;30.30;;;21.98;;
60492;SDS011;46341;51.290;-2.474;2022-11-13T08:38:35;32.55;;;22.85;;
60492;SDS011;46341;51.290;-2.474;2022-11-13T08:41:02;32.88;;;21.85;;
60492;SDS011;46341;51.290;-2.474;2022-11-13T08:43:34;28.65;;;21.10;;
60492;SDS011;46341;51.290;-2.474;2022-11-13T08:46:01;30.83;;;21.48;;
60492;SDS011;46341;51.290;-2.474;2022-11-13T08:48:27;28.30;;;21.17;;
60492;SDS011;46341;51.290;-2.474;2022-11-13T08:50:54;29.45;;;20.83;;
60492;SDS011;46341;51.290;-2.474;2022-11-13T08:53:21;27.08;;;21.45;;
60492;SDS011;46341;51.290;-2.474;2022-11-13T08:55:48;29.43;;;21.07;;
60492;SDS011;46341;51.290;-2.474;2022-11-13T08:58:15;26.60;;;20.63;;
60492;SDS011;46341;51.290;-2.474;2022-11-13T09:00:41;30.20;;;22.00;;
60492;SDS011;46341;51.290;-2.474;2022-11-13T09:03:08;27.48;;;21.58;;
60492;SDS011;46341;51.290;-2.474;2022-11-13T09:05:36;30.23;;;21.17;;
60492;SDS011;46341;51.290;-2.474;2022-11-13T09:08:02;25.90;;;20.75;;
60492;SDS011;46341;51.290;-2.474;2022-11-13T09:10:29;28.73;;;21.05;;
60492;SDS011;46341;51.290;-2.474;2022-11-13T09:12:59;25.10;;;18.95;;
60492;SDS011;46341;51.290;-2.474;2022-11-13T09:15:27;21.52;;;17.10;;
60492;SDS011;46341;51.290;-2.474;2022-11-13T09:17:57;18.60;;;16.58;;
60492;SDS011;46341;51.290;-2.474;2022-11-13T09:20:24;16.63;;;14.93;;
60492;SDS011;46341;51.290;-2.474;2022-11-13T09:23:12;16.15;;;14.38;;
60492;SDS011;46341;51.290;-2.474;2022-11-13T09:25:37;15.68;;;14.05;;
60492;SDS011;46341;51.290;-2.474;2022-11-13T09:28:04;15.95;;;13.93;;
60492;SDS011;46341;51.290;-2.474;2022-11-13T09:30:30;14.25;;;12.85;;
60492;SDS011;46341;51.290;-2.474;2022-11-13T09:32:57;13.77;;;12.38;;
60492;SDS011;46341;51.290;-2.474;2022-11-13T09:35:24;14.05;;;12.75;;
60492;SDS011;46341;51.290;-2.474;2022-11-13T09:38:04;14.45;;;13.05;;
60492;SDS011;46341;51.290;-2.474;2022-11-13T09:40:38;14.23;;;12.73;;
60492;SDS011;46341;51.290;-2.474;2022-11-13T09:43:09;13.35;;;12.05;;
60492;SDS011;46341;51.290;-2.474;2022-11-13T09:45:38;13.15;;;11.80;;
60492;SDS011;46341;51.290;-2.474;2022-11-13T09:50:31;12.23;;;11.02;;
60492;SDS011;46341;51.290;-2.474;2022-11-13T09:52:58;12.50;;;11.18;;
60492;SDS011;46341;51.290;-2.474;2022-11-13T09:55:27;12.93;;;10.60;;
60492;SDS011;46341;51.290;-2.474;2022-11-13T10:00:28;10.68;;;9.60;;
60492;SDS011;46341;51.290;-2.474;2022-11-13T10:08:16;11.90;;;10.70;;
60492;SDS011;46341;51.290;-2.474;2022-11-13T10:10:51;10.43;;;9.43;;
60492;SDS011;46341;51.290;-2.474;2022-11-13T10:13:26;11.98;;;10.70;;
60492;SDS011;46341;51.290;-2.474;2022-11-13T10:15:55;10.15;;;9.15;;
60492;SDS011;46341;51.290;-2.474;2022-11-13T10:18:28;10.25;;;9.32;;
60492;SDS011;46341;51.290;-2.474;2022-11-13T10:21:07;11.20;;;10.00;;
60492;SDS011;46341;51.290;-2.474;2022-11-13T10:23:36;9.27;;;8.48;;
60492;SDS011;46341;51.290;-2.474;2022-11-13T10:26:10;10.00;;;8.70;;
60492;SDS011;46341;51.290;-2.474;2022-11-13T10:28:38;9.05;;;8.15;;
60492;SDS011;46341;51.290;-2.474;2022-11-13T10:31:21;11.52;;;10.05;;
60492;SDS011;46341;51.290;-2.474;2022-11-13T10:33:53;10.43;;;9.38;;
60492;SDS011;46341;51.290;-2.474;2022-11-13T10:36:23;9.88;;;8.95;;
60492;SDS011;46341;51.290;-2.474;2022-11-13T10:38:59;12.63;;;9.05;;
60492;SDS011;46341;51.290;-2.474;2022-11-13T10:41:26;9.50;;;8.70;;
60492;SDS011;46341;51.290;-2.474;2022-11-13T10:46:31;9.23;;;8.43;;
60492;SDS011;46341;51.290;-2.474;2022-11-13T10:49:09;9.32;;;8.43;;
60492;SDS011;46341;51.290;-2.474;2022-11-13T10:51:35;9.65;;;8.70;;
60492;SDS011;46341;51.290;-2.474;2022-11-13T10:54:15;9.63;;;8.60;;
60492;SDS011;46341;51.290;-2.474;2022-11-13T10:56:44;9.18;;;8.18;;
60492;SDS011;46341;51.290;-2.474;2022-11-13T11:01:47;10.13;;;7.72;;
60492;SDS011;46341;51.290;-2.474;2022-11-13T11:06:44;8.20;;;7.32;;
60492;SDS011;46341;51.290;-2.474;2022-11-13T11:19:57;8.60;;;6.30;;
60492;SDS011;46341;51.290;-2.474;2022-11-13T11:22:26;6.50;;;5.38;;
60492;SDS011;46341;51.290;-2.474;2022-11-13T11:25:00;6.85;;;5.35;;
60492;SDS011;46341;51.290;-2.474;2022-11-13T11:27:31;6.07;;;5.32;;
60492;SDS011;46341;51.290;-2.474;2022-11-13T11:30:05;8.80;;;6.07;;
60492;SDS011;46341;51.290;-2.474;2022-11-13T11:32:56;7.40;;;5.25;;
60492;SDS011;46341;51.290;-2.474;2022-11-13T11:35:23;8.10;;;5.60;;
60492;SDS011;46341;51.290;-2.474;2022-11-13T11:38:10;5.85;;;5.22;;
60492;SDS011;46341;51.290;-2.474;2022-11-13T11:40:40;7.75;;;5.05;;
60492;SDS011;46341;51.290;-2.474;2022-11-13T11:43:12;5.38;;;4.88;;
60492;SDS011;46341;51.290;-2.474;2022-11-13T11:45:42;8.23;;;5.35;;
60492;SDS011;46341;51.290;-2.474;2022-11-13T11:48:11;6.75;;;5.10;;
60492;SDS011;46341;51.290;-2.474;2022-11-13T11:56:06;5.00;;;4.50;;
60492;SDS011;46341;51.290;-2.474;2022-11-13T12:01:04;4.72;;;4.22;;
60492;SDS011;46341;51.290;-2.474;2022-11-13T12:12:19;5.07;;;4.32;;
60492;SDS011;46341;51.290;-2.474;2022-11-13T12:14:32;5.25;;;4.70;;
60492;SDS011;46341;51.290;-2.474;2022-11-13T12:19:51;5.93;;;4.20;;
60492;SDS011;46341;51.290;-2.474;2022-11-13T12:25:06;6.47;;;4.25;;
60492;SDS011;46341;51.290;-2.474;2022-11-13T12:27:39;5.60;;;4.30;;
60492;SDS011;46341;51.290;-2.474;2022-11-13T12:30:10;5.15;;;3.97;;
60492;SDS011;46341;51.290;-2.474;2022-11-13T12:32:43;7.25;;;4.40;;
60492;SDS011;46341;51.290;-2.474;2022-11-13T12:35:14;5.75;;;4.40;;
60492;SDS011;46341;51.290;-2.474;2022-11-13T12:43:04;6.05;;;4.10;;
60492;SDS011;46341;51.290;-2.474;2022-11-13T12:45:45;5.95;;;4.10;;
60492;SDS011;46341;51.290;-2.474;2022-11-13T12:50:43;5.13;;;3.80;;
60492;SDS011;46341;51.290;-2.474;2022-11-13T12:53:28;7.35;;;3.88;;
60492;SDS011;46341;51.290;-2.474;2022-11-13T12:55:56;5.47;;;3.53;;
60492;SDS011;46341;51.290;-2.474;2022-11-13T12:58:26;3.75;;;3.45;;
60492;SDS011;46341;51.290;-2.474;2022-11-13T13:00:55;5.93;;;3.38;;
60492;SDS011;46341;51.290;-2.474;2022-11-13T13:13:39;5.13;;;3.22;;
60492;SDS011;46341;51.290;-2.474;2022-11-13T13:16:08;4.22;;;2.80;;
60492;SDS011;46341;51.290;-2.474;2022-11-13T13:18:35;4.20;;;2.90;;
60492;SDS011;46341;51.290;-2.474;2022-11-13T13:21:09;5.38;;;2.95;;
60492;SDS011;46341;51.290;-2.474;2022-11-13T13:23:36;5.75;;;3.40;;
60492;SDS011;46341;51.290;-2.474;2022-11-13T13:28:40;4.70;;;3.00;;
60492;SDS011;46341;51.290;-2.474;2022-11-13T13:49:47;3.85;;;3.17;;
60492;SDS011;46341;51.290;-2.474;2022-11-13T13:52:15;3.80;;;3.15;;
60492;SDS011;46341;51.290;-2.474;2022-11-13T13:54:41;6.22;;;3.50;;
60492;SDS011;46341;51.290;-2.474;2022-11-13T13:57:10;3.95;;;3.00;;
60492;SDS011;46341;51.290;-2.474;2022-11-13T13:59:38;4.97;;;3.10;;
60492;SDS011;46341;51.290;-2.474;2022-11-13T14:02:14;5.60;;;3.10;;
60492;SDS011;46341;51.290;-2.474;2022-11-13T14:04:42;3.95;;;3.05;;
60492;SDS011;46341;51.290;-2.474;2022-11-13T14:09:47;4.72;;;3.10;;
60492;SDS011;46341;51.290;-2.474;2022-11-13T14:12:17;4.97;;;3.00;;
60492;SDS011;46341;51.290;-2.474;2022-11-13T14:14:44;6.38;;;3.20;;
60492;SDS011;46341;51.290;-2.474;2022-11-13T14:17:11;4.20;;;3.22;;
60492;SDS011;46341;51.290;-2.474;2022-11-13T14:19:37;5.95;;;3.20;;
60492;SDS011;46341;51.290;-2.474;2022-11-13T14:22:04;4.28;;;3.35;;
60492;SDS011;46341;51.290;-2.474;2022-11-13T14:24:43;4.22;;;2.83;;
60492;SDS011;46341;51.290;-2.474;2022-11-13T14:27:12;4.75;;;2.92;;
60492;SDS011;46341;51.290;-2.474;2022-11-13T14:32:17;5.07;;;3.38;;
60492;SDS011;46341;51.290;-2.474;2022-11-13T14:34:45;4.93;;;3.35;;
60492;SDS011;46341;51.290;-2.474;2022-11-13T14:37:17;6.70;;;3.60;;
60492;SDS011;46341;51.290;-2.474;2022-11-13T14:39:46;5.43;;;3.33;;
60492;SDS011;46341;51.290;-2.474;2022-11-13T14:42:27;4.13;;;3.05;;
60492;SDS011;46341;51.290;-2.474;2022-11-13T14:45:04;4.97;;;3.22;;
60492;SDS011;46341;51.290;-2.474;2022-11-13T14:47:30;5.75;;;3.58;;
60492;SDS011;46341;51.290;-2.474;2022-11-13T14:50:22;6.15;;;3.60;;
60492;SDS011;46341;51.290;-2.474;2022-11-13T14:53:24;5.40;;;3.10;;
60492;SDS011;46341;51.290;-2.474;2022-11-13T14:55:49;8.02;;;3.75;;
60492;SDS011;46341;51.290;-2.474;2022-11-13T14:58:30;4.70;;;3.20;;
60492;SDS011;46341;51.290;-2.474;2022-11-13T15:00:58;4.97;;;3.13;;
60492;SDS011;46341;51.290;-2.474;2022-11-13T15:03:24;5.55;;;3.30;;
60492;SDS011;46341;51.290;-2.474;2022-11-13T15:05:52;6.80;;;3.70;;
60492;SDS011;46341;51.290;-2.474;2022-11-13T15:08:19;4.20;;;3.22;;
60492;SDS011;46341;51.290;-2.474;2022-11-13T15:10:45;5.57;;;4.00;;
60492;SDS011;46341;51.290;-2.474;2022-11-13T15:13:13;10.15;;;4.45;;
60492;SDS011;46341;51.290;-2.474;2022-11-13T15:15:39;10.88;;;4.57;;
60492;SDS011;46341;51.290;-2.474;2022-11-13T15:18:06;8.75;;;4.40;;
60492;SDS011;46341;51.290;-2.474;2022-11-13T15:20:35;8.32;;;5.47;;
60492;SDS011;46341;51.290;-2.474;2022-11-13T15:23:01;7.72;;;5.78;;
60492;SDS011;46341;51.290;-2.474;2022-11-13T15:25:28;10.13;;;6.40;;
60492;SDS011;46341;51.290;-2.474;2022-11-13T15:27:54;7.82;;;6.28;;
60492;SDS011;46341;51.290;-2.474;2022-11-13T15:30:20;8.65;;;6.63;;
60492;SDS011;46341;51.290;-2.474;2022-11-13T15:32:47;9.48;;;6.32;;
60492;SDS011;46341;51.290;-2.474;2022-11-13T15:35:19;7.47;;;6.53;;
60492;SDS011;46341;51.290;-2.474;2022-11-13T15:37:45;8.15;;;6.65;;
60492;SDS011;46341;51.290;-2.474;2022-11-13T15:40:12;8.30;;;5.40;;
60492;SDS011;46341;51.290;-2.474;2022-11-13T15:42:39;8.43;;;5.40;;
60492;SDS011;46341;51.290;-2.474;2022-11-13T15:45:08;8.02;;;4.55;;
60492;SDS011;46341;51.290;-2.474;2022-11-13T15:47:35;5.82;;;4.82;;
60492;SDS011;46341;51.290;-2.474;2022-11-13T15:50:03;6.53;;;4.60;;
60492;SDS011;46341;51.290;-2.474;2022-11-13T15:52:46;6.18;;;5.05;;
60492;SDS011;46341;51.290;-2.474;2022-11-13T15:57:46;8.32;;;4.78;;
60492;SDS011;46341;51.290;-2.474;2022-11-13T16:00:17;5.45;;;4.72;;
60492;SDS011;46341;51.290;-2.474;2022-11-13T16:02:43;8.18;;;4.35;;
60492;SDS011;46341;51.290;-2.474;2022-11-13T16:05:10;6.65;;;4.70;;
60492;SDS011;46341;51.290;-2.474;2022-11-13T16:07:37;9.07;;;4.35;;